• Join FlightAware (Why Join?)
  • Login
  • US Flag 
10:33AM EDT


 

Airport Tracker/Info


-or-


 

Live Flight TrackerFlight Track Log ✈ CTL14 ✈ 17-Jun-2013 ✈ KBAK - KBMI

Flight Track Log - Related Links

Times and Time Zones

All times are in EDT time to prevent confusion due to time zone crossing. See the CTL14 flight status page for this flight to view local times or setup timezone preferences in your user account.

Time Position Orientation Groundspeed Altitude Reporting Facility
EDT Latitude Longitude Course Direction KTS MPH feet Rate Location/Type
09:21PM 39.2833 -85.9000 360° North 115 132 1,100  Level Indianapolis TRACON
09:22PM 39.2833 -85.9000 346° North 126 145 1,500 840 Climbing Indianapolis TRACON
09:23PM 39.3219 -85.9125 346° North 138 159 2,200 780 Climbing Indianapolis Center
09:24PM 39.3625 -85.9183 354° North 143 165 3,000 780 Climbing Indianapolis Center
09:25PM 39.3897 -85.9547 314° West 149 171 3,800 480 Climbing Indianapolis Center
09:26PM 39.4081 -86.0017 297° West 147 169 4,000 120 Climbing Indianapolis Center
09:27PM 39.4175 -86.0639 281° West 169 194 4,100  Climbing Indianapolis Center
09:28PM 39.4331 -86.1350 286° West 171 197 4,000 -60 Descending Indianapolis Center
09:29PM 39.4461 -86.1950 286° West 172 198 4,000  Level Indianapolis Center
09:30PM 39.4603 -86.2542 287° West 172 198 4,000  Level Indianapolis Center
09:32PM 39.5000 -86.3667 295° West 171 197 4,100  Climbing Indianapolis TRACON
09:33PM 39.5333 -86.4167 311° West 171 197 4,100  Level Indianapolis TRACON
09:34PM 39.5500 -86.4667 293° West 172 198 4,100  Level Indianapolis TRACON
09:35PM 39.5667 -86.5333 288° West 173 199 4,100  Level Indianapolis TRACON
09:36PM 39.5833 -86.5833 293° West 174 200 4,100  Level Indianapolis TRACON
09:37PM 39.6150 -86.6414 305° West 174 200 4,200  Climbing Indianapolis Center
09:38PM 39.6414 -86.7086 297° West 174 200 4,100 -60 Descending Indianapolis Center
09:39PM 39.6622 -86.7647 296° West 174 200 4,100  Level Indianapolis Center
09:40PM 39.6836 -86.8208 296° West 174 200 4,100 -60 Level Indianapolis Center
09:41PM 39.7047 -86.8772 296° West 173 199 4,000  Descending Indianapolis Center
09:42PM 39.7258 -86.9336 296° West 174 200 4,100  Climbing Indianapolis Center
09:43PM 39.7469 -86.9894 296° West 173 199 4,100  Level Indianapolis Center
09:44PM 39.7692 -87.0447 298° West 173 199 4,100  Level Indianapolis Center
09:45PM 39.7908 -87.1003 297° West 173 199 4,100  Level Indianapolis Center
09:46PM 39.8122 -87.1572 296° West 174 200 4,100  Level Indianapolis Center
09:47PM 39.8331 -87.2144 295° West 175 201 4,100  Level Indianapolis Center
09:48PM 39.8586 -87.2831 296° West 175 201 4,100  Level Indianapolis Center
09:49PM 39.8794 -87.3400 296° West 175 201 4,100  Level Indianapolis Center
09:50PM 39.9000 -87.3961 296° West 174 200 4,100  Level Indianapolis Center
09:51PM 39.9217 -87.4531 296° West 174 200 4,100  Level Indianapolis Center
09:52PM 39.9422 -87.5097 295° West 174 200 4,100  Level Indianapolis Center
09:53PM 39.9622 -87.5653 295° West 172 198 4,200  Climbing Indianapolis Center
09:54PM 39.9833 -87.6261 294° West 171 197 4,200 -60 Level Indianapolis Center
09:57PM 40.0328 -87.7483 298° West 164 189 4,100 -60 Descending Chicago Center
09:58PM 40.0525 -87.8050 294° West 166 191 4,100  Level Chicago Center
09:59PM 40.0800 -87.8717 298° West 171 197 4,100  Level Chicago Center
10:00PM 40.0986 -87.9267 294° West 169 194 4,100  Level Chicago Center
10:01PM 40.1233 -87.9778 302° West 168 193 4,100  Level Chicago Center
10:02PM 40.1478 -88.0297 302° West 169 194 4,100  Level Chicago Center
10:03PM 40.1708 -88.0889 297° West 173 199 4,100  Level Chicago Center
10:04PM 40.1944 -88.1536 296° West 169 194 4,100  Level Chicago Center
10:05PM 40.2147 -88.2097 295° West 171 197 4,100 -60 Level Chicago Center
10:06PM 40.2342 -88.2658 294° West 170 196 4,000 -60 Descending Chicago Center
10:07PM 40.2536 -88.3208 295° West 168 193 4,000  Level Chicago Center
10:08PM 40.2722 -88.3772 293° West 168 193 4,000  Level Chicago Center
10:09PM 40.2903 -88.4328 293° West 168 193 4,000  Level Chicago Center
10:10PM 40.3139 -88.4994 295° West 168 193 4,000  Level Chicago Center
10:11PM 40.3314 -88.5469 296° West 169 194 4,100 -240 Climbing Chicago Center
10:12PM 40.3578 -88.6150 297° West 173 199 3,600 -480 Descending Chicago Center
10:13PM 40.3822 -88.6742 298° West 182 209 3,200 -360 Descending Chicago Center
10:14PM 40.4058 -88.7275 300° West 176 203 2,900 -300 Descending Chicago Center
10:15PM 40.4286 -88.7808 299° West 170 196 2,600 -360 Descending Chicago Center
10:16PM 40.4517 -88.8297 302° West 163 188 2,200 -540 Descending Chicago Center
10:17PM 40.4708 -88.8756 299° West 155 178 1,600 -600 Descending Chicago Center
10:19PM 40.4778 -88.9086 285° West 118 136 1,000 -600 Descending Chicago Center
10:20PM 40.4771 -88.9159 90° East  Level Estimated
10:27PM 40.4771 -88.9159 90° East  Level Estimated
10:28PM 40.4771 -88.9159 90° East  Level Estimated